createdAt,value
2022-12-08T00:00:11.943Z,4.40
2022-12-08T00:03:00.715Z,5.30
2022-12-08T00:05:48.854Z,5.30
2022-12-08T00:08:36.055Z,4.60
2022-12-08T00:11:04.755Z,4.00
2022-12-08T00:13:33.433Z,3.20
2022-12-08T00:16:02.318Z,4.40
2022-12-08T00:18:30.794Z,4.80
2022-12-08T00:21:00.194Z,4.60
2022-12-08T00:23:29.196Z,3.40
2022-12-08T00:25:57.666Z,4.30
2022-12-08T00:28:26.359Z,5.10
2022-12-08T00:30:55.138Z,4.50
2022-12-08T00:33:24.035Z,4.80
2022-12-08T00:35:52.924Z,4.70
2022-12-08T00:38:22.135Z,5.10
2022-12-08T00:40:50.807Z,5.10
2022-12-08T00:43:19.494Z,4.60
2022-12-08T00:45:48.365Z,5.40
2022-12-08T00:48:17.195Z,5.90
2022-12-08T00:50:45.954Z,6.40
2022-12-08T00:53:14.654Z,6.20
2022-12-08T00:55:43.841Z,6.90
2022-12-08T00:58:12.637Z,5.60
2022-12-08T01:00:42.832Z,5.70
2022-12-08T01:03:12.311Z,6.60
2022-12-08T01:05:41.355Z,5.80
2022-12-08T01:08:10.211Z,5.80
2022-12-08T01:10:40.050Z,5.80
2022-12-08T01:13:08.528Z,6.20
2022-12-08T01:15:37.733Z,6.00
2022-12-08T01:18:06.453Z,5.30
2022-12-08T01:20:35.112Z,6.00
2022-12-08T01:23:03.997Z,6.30
2022-12-08T01:25:35.857Z,4.70
2022-12-08T01:28:04.954Z,5.70
2022-12-08T01:30:33.760Z,5.60
2022-12-08T01:33:02.834Z,5.10
2022-12-08T01:35:31.925Z,5.20
2022-12-08T01:38:00.403Z,4.90
2022-12-08T01:40:29.091Z,5.60
2022-12-08T01:42:57.799Z,5.40
2022-12-08T01:45:31.794Z,5.70
2022-12-08T01:48:11.713Z,5.20
2022-12-08T01:50:41.324Z,5.40
2022-12-08T01:53:13.174Z,5.60
2022-12-08T01:55:49.524Z,5.70
2022-12-08T01:58:28.944Z,5.70
2022-12-08T02:00:57.545Z,5.30
2022-12-08T02:03:34.858Z,5.50
2022-12-08T02:06:04.274Z,5.80
2022-12-08T02:08:33.276Z,5.70
2022-12-08T02:11:01.850Z,4.90
2022-12-08T02:13:32.992Z,5.60
2022-12-08T02:16:20.162Z,4.30
2022-12-08T02:22:14.925Z,4.60
2022-12-08T02:24:55.915Z,4.90
2022-12-08T02:27:34.420Z,5.50
2022-12-08T02:30:34.926Z,5.00
2022-12-08T02:33:09.496Z,5.20
2022-12-08T02:36:01.317Z,4.40
2022-12-08T02:38:44.236Z,4.50
2022-12-08T02:41:31.968Z,4.90
2022-12-08T02:44:09.554Z,4.50
2022-12-08T02:46:47.158Z,5.10
2022-12-08T02:49:17.066Z,4.80
2022-12-08T02:51:45.655Z,4.80
2022-12-08T02:54:15.576Z,5.10
2022-12-08T02:57:19.775Z,4.40
2022-12-08T03:00:07.680Z,4.40
2022-12-08T03:02:58.291Z,4.50
2022-12-08T03:05:54.947Z,4.10
2022-12-08T03:08:48.836Z,4.40
2022-12-08T03:11:22.955Z,3.90
2022-12-08T03:13:58.044Z,4.70
2022-12-08T03:16:31.060Z,5.00
2022-12-08T03:19:04.559Z,4.00
2022-12-08T03:21:34.683Z,4.50
2022-12-08T03:24:07.869Z,5.10
2022-12-08T03:26:47.316Z,4.30
2022-12-08T03:29:16.093Z,4.20
2022-12-08T03:32:23.701Z,4.70
2022-12-08T03:34:53.935Z,4.10
2022-12-08T03:37:22.810Z,3.60
2022-12-08T03:39:51.618Z,4.40
2022-12-08T03:42:20.391Z,5.00
2022-12-08T03:44:48.996Z,4.30
2022-12-08T03:47:17.752Z,4.80
2022-12-08T03:49:46.347Z,5.50
2022-12-08T03:52:14.936Z,5.40
2022-12-08T03:54:43.503Z,5.20
2022-12-08T03:57:12.197Z,5.20
2022-12-08T03:59:40.896Z,5.20
2022-12-08T04:02:09.733Z,5.40
2022-12-08T04:04:39.706Z,4.60
2022-12-08T04:07:08.267Z,3.90
2022-12-08T04:09:37.176Z,3.70
2022-12-08T04:12:06.395Z,4.30
2022-12-08T04:14:35.141Z,4.60
2022-12-08T04:17:04.044Z,4.40
2022-12-08T04:19:32.919Z,5.20
2022-12-08T04:22:01.398Z,4.50
2022-12-08T04:24:29.982Z,4.70
2022-12-08T04:26:58.900Z,5.20
2022-12-08T04:29:27.675Z,5.20
2022-12-08T04:31:56.437Z,5.00
2022-12-08T04:34:26.308Z,4.90
2022-12-08T04:36:54.842Z,5.30
2022-12-08T04:39:23.636Z,5.20
2022-12-08T04:41:53.238Z,5.60
2022-12-08T04:44:22.035Z,6.20
2022-12-08T04:46:50.754Z,6.20
2022-12-08T04:49:20.273Z,5.50
2022-12-08T04:51:49.435Z,5.90
2022-12-08T04:54:18.029Z,5.80
2022-12-08T04:56:46.701Z,5.70
2022-12-08T04:59:15.264Z,5.60
2022-12-08T05:01:44.135Z,5.50
2022-12-08T05:04:13.049Z,4.80
2022-12-08T05:06:41.637Z,5.40
2022-12-08T05:09:10.623Z,6.30
2022-12-08T05:11:48.404Z,3.70
2022-12-08T05:14:19.494Z,5.50
2022-12-08T05:16:48.496Z,5.20
2022-12-08T05:19:18.376Z,4.10
2022-12-08T05:21:47.260Z,3.40
2022-12-08T05:24:15.855Z,5.10
2022-12-08T05:26:44.435Z,5.30
2022-12-08T05:29:13.134Z,5.80
2022-12-08T05:31:42.021Z,6.60
2022-12-08T05:34:10.916Z,5.60
2022-12-08T05:36:39.695Z,4.60
2022-12-08T05:39:09.143Z,4.60
2022-12-08T05:41:37.776Z,5.00
2022-12-08T05:44:06.665Z,4.30
2022-12-08T05:46:35.448Z,5.10
2022-12-08T05:49:04.487Z,5.10
2022-12-08T05:51:33.456Z,4.90
2022-12-08T05:54:02.636Z,5.60
2022-12-08T05:56:31.437Z,4.40
2022-12-08T05:59:00.735Z,4.80
2022-12-08T06:01:31.412Z,5.80
2022-12-08T06:04:01.735Z,4.40
2022-12-08T06:06:30.956Z,5.60
2022-12-08T06:08:59.757Z,5.20
2022-12-08T06:11:30.850Z,5.90
2022-12-08T06:14:00.023Z,5.20
2022-12-08T06:16:29.267Z,5.30
2022-12-08T06:18:59.335Z,5.80
2022-12-08T06:21:27.815Z,5.10
2022-12-08T06:23:56.815Z,6.70
2022-12-08T06:26:25.696Z,4.80
2022-12-08T06:28:54.698Z,5.40
2022-12-08T06:31:26.229Z,6.10
2022-12-08T06:33:55.956Z,5.80
2022-12-08T06:36:26.853Z,5.30
2022-12-08T06:38:56.476Z,6.00
2022-12-08T06:41:25.395Z,5.80
2022-12-08T06:43:58.067Z,5.00
2022-12-08T06:46:27.440Z,4.80
2022-12-08T06:48:56.450Z,5.70
2022-12-08T06:51:26.476Z,5.60
2022-12-08T06:53:55.565Z,5.40
2022-12-08T06:56:28.457Z,4.00
2022-12-08T06:58:57.136Z,4.80
2022-12-08T07:01:26.455Z,5.10
2022-12-08T07:03:55.022Z,6.00
2022-12-08T07:06:25.134Z,3.90
2022-12-08T07:08:54.042Z,4.90
2022-12-08T07:11:23.019Z,5.20
2022-12-08T07:13:51.805Z,5.70
2022-12-08T07:16:20.778Z,5.10
2022-12-08T07:18:50.822Z,5.50
2022-12-08T07:21:19.603Z,5.10
2022-12-08T07:23:54.220Z,5.80
2022-12-08T07:26:27.217Z,5.80
2022-12-08T07:28:56.417Z,5.30
2022-12-08T07:31:26.214Z,4.30
2022-12-08T07:33:57.511Z,6.20
2022-12-08T07:36:26.677Z,5.70
2022-12-08T07:38:55.257Z,5.90
2022-12-08T07:41:27.021Z,5.70
2022-12-08T07:43:57.059Z,5.50
2022-12-08T07:46:27.141Z,5.70
2022-12-08T07:48:58.168Z,5.20
2022-12-08T07:51:28.139Z,5.20
2022-12-08T07:53:57.118Z,6.00
2022-12-08T07:56:26.433Z,5.50
2022-12-08T07:58:56.438Z,5.60
2022-12-08T08:01:29.055Z,4.40
2022-12-08T08:04:02.230Z,5.20
2022-12-08T08:06:33.081Z,4.70
2022-12-08T08:09:01.900Z,5.30
2022-12-08T08:11:31.098Z,4.60
2022-12-08T08:14:00.003Z,4.00
2022-12-08T08:16:33.458Z,4.60
2022-12-08T08:19:05.661Z,4.70
2022-12-08T08:21:45.417Z,4.10
2022-12-08T08:24:15.520Z,4.90
2022-12-08T08:26:45.994Z,3.50
2022-12-08T08:29:15.986Z,4.70
2022-12-08T08:31:46.328Z,4.50
2022-12-08T08:34:16.114Z,5.50
2022-12-08T08:36:45.749Z,4.10
2022-12-08T08:39:15.005Z,4.60
2022-12-08T08:41:44.062Z,5.20
2022-12-08T08:44:15.432Z,4.60
2022-12-08T08:46:44.306Z,4.50
2022-12-08T08:49:13.720Z,4.50
2022-12-08T08:51:43.209Z,4.50
2022-12-08T08:54:12.659Z,4.70
2022-12-08T08:56:42.171Z,4.80
2022-12-08T08:59:11.760Z,4.50
2022-12-08T09:01:40.581Z,5.10
2022-12-08T09:04:10.496Z,4.90
2022-12-08T09:06:39.942Z,6.20
2022-12-08T09:09:08.877Z,6.10
2022-12-08T09:11:38.376Z,4.30
2022-12-08T09:14:07.898Z,4.90
2022-12-08T09:16:41.910Z,5.20
2022-12-08T09:19:11.775Z,5.40
2022-12-08T09:21:41.094Z,4.80
2022-12-08T09:24:16.136Z,5.80
2022-12-08T09:26:45.632Z,4.30
2022-12-08T09:29:15.157Z,4.30
2022-12-08T09:31:44.460Z,5.30
2022-12-08T09:34:14.770Z,5.60
2022-12-08T09:36:43.748Z,4.10
2022-12-08T09:39:12.358Z,4.80
2022-12-08T09:41:48.473Z,4.90
2022-12-08T09:44:35.103Z,4.20
2022-12-08T09:47:07.413Z,5.00
2022-12-08T09:50:03.213Z,4.40
2022-12-08T09:52:39.150Z,4.70
2022-12-08T09:55:32.316Z,4.90
2022-12-08T09:58:03.238Z,4.90
2022-12-08T10:00:32.663Z,5.20
2022-12-08T10:03:01.858Z,5.50
2022-12-08T10:05:33.838Z,6.10
2022-12-08T10:08:28.291Z,5.40
2022-12-08T10:11:09.685Z,4.40
2022-12-08T10:13:52.301Z,3.80
2022-12-08T10:16:41.366Z,3.60
2022-12-08T10:19:15.562Z,3.90
2022-12-08T10:21:45.084Z,4.00
2022-12-08T10:24:19.604Z,4.40
2022-12-08T10:26:50.047Z,3.90
2022-12-08T10:29:19.437Z,4.40
2022-12-08T10:31:48.724Z,3.80
2022-12-08T10:34:21.458Z,4.30
2022-12-08T10:36:50.406Z,4.40
2022-12-08T10:39:40.930Z,3.80
2022-12-08T10:42:20.446Z,4.00
2022-12-08T10:45:04.112Z,3.80
2022-12-08T10:47:38.364Z,4.30
2022-12-08T10:50:13.037Z,4.40
2022-12-08T10:52:42.028Z,3.60
2022-12-08T10:55:19.291Z,4.20
2022-12-08T10:57:51.572Z,5.40
2022-12-08T11:00:28.729Z,4.90
2022-12-08T11:03:01.277Z,5.40
2022-12-08T11:05:33.712Z,5.20
2022-12-08T11:08:04.913Z,5.40
2022-12-08T11:10:43.281Z,4.70
2022-12-08T11:13:24.599Z,4.50
2022-12-08T11:15:55.590Z,5.30
2022-12-08T11:18:43.440Z,5.10
2022-12-08T11:21:17.376Z,4.80
2022-12-08T11:23:51.225Z,5.70
2022-12-08T11:26:30.536Z,5.50
2022-12-08T11:29:01.008Z,4.90
2022-12-08T11:31:37.604Z,5.30
2022-12-08T11:34:07.593Z,4.50
2022-12-08T11:36:38.049Z,5.20
2022-12-08T11:39:06.911Z,5.10
2022-12-08T11:41:42.556Z,5.30
2022-12-08T11:44:22.404Z,5.10
2022-12-08T11:46:58.911Z,5.50
2022-12-08T11:52:23.275Z,4.20
2022-12-08T11:55:36.967Z,5.70
2022-12-08T11:58:42.476Z,4.70
2022-12-08T12:01:21.479Z,4.10
2022-12-08T12:04:13.906Z,2.20
2022-12-08T12:07:01.769Z,4.20
2022-12-08T12:09:45.420Z,3.90
2022-12-08T12:12:40.247Z,4.80
2022-12-08T12:15:24.562Z,4.50
2022-12-08T12:18:06.138Z,4.80
2022-12-08T12:20:47.038Z,5.40
2022-12-08T12:23:22.196Z,5.10
2022-12-08T12:26:02.653Z,5.10
2022-12-08T12:28:53.946Z,4.70
2022-12-08T12:31:45.456Z,4.70
2022-12-08T12:34:31.633Z,4.10
2022-12-08T12:37:26.042Z,4.30
2022-12-08T12:40:03.234Z,4.30
2022-12-08T12:42:52.094Z,2.90
2022-12-08T12:45:21.273Z,3.50
2022-12-08T12:47:58.161Z,4.80
2022-12-08T12:50:37.806Z,3.80
2022-12-08T12:53:19.497Z,4.30
2022-12-08T12:56:03.059Z,6.10
2022-12-08T12:58:32.126Z,6.10
2022-12-08T13:01:13.785Z,5.00
2022-12-08T13:04:13.156Z,5.60
2022-12-08T13:06:45.344Z,5.80
2022-12-08T13:09:27.797Z,4.50
2022-12-08T13:11:59.376Z,5.10
2022-12-08T13:14:34.048Z,6.10
2022-12-08T13:17:07.849Z,4.80
2022-12-08T13:19:37.847Z,4.30
2022-12-08T13:22:45.383Z,5.70
2022-12-08T13:25:48.522Z,4.40
2022-12-08T13:28:30.593Z,5.60
2022-12-08T13:31:04.494Z,5.30
2022-12-08T13:33:39.908Z,5.00
2022-12-08T13:36:19.408Z,5.10
2022-12-08T13:38:51.297Z,5.50
2022-12-08T13:41:23.494Z,4.70
2022-12-08T13:59:23.720Z,5.10
2022-12-08T14:01:52.961Z,5.00
2022-12-08T14:05:09.345Z,5.90
2022-12-08T14:07:12.670Z,5.50
2022-12-08T14:09:42.860Z,4.90
2022-12-08T14:12:22.074Z,5.70
2022-12-08T14:15:03.093Z,5.20
2022-12-08T14:17:35.923Z,6.00
2022-12-08T14:20:13.722Z,6.20
2022-12-08T14:22:42.613Z,5.80
2022-12-08T14:25:18.673Z,5.90
2022-12-08T14:27:48.788Z,6.50
2022-12-08T14:30:25.683Z,6.80
2022-12-08T14:33:02.030Z,5.10
2022-12-08T14:35:37.185Z,6.50
2022-12-08T14:38:21.326Z,7.10
2022-12-08T14:41:08.021Z,6.70
2022-12-08T14:43:37.324Z,6.80
2022-12-08T14:46:22.720Z,6.80
2022-12-08T14:48:54.004Z,6.60
2022-12-08T14:51:32.775Z,6.40
2022-12-08T14:54:14.784Z,6.60
2022-12-08T14:56:55.081Z,7.30
2022-12-08T14:59:32.987Z,6.60
2022-12-08T15:02:20.050Z,7.50
2022-12-08T15:04:56.012Z,7.70
2022-12-08T15:07:28.268Z,8.10
2022-12-08T15:10:10.787Z,8.00
2022-12-08T15:12:40.170Z,7.60
2022-12-08T15:15:09.905Z,7.20
2022-12-08T15:17:44.991Z,6.90
2022-12-08T15:20:33.195Z,6.80
2022-12-08T15:23:04.637Z,6.50
2022-12-08T15:25:33.735Z,6.10
2022-12-08T15:28:03.224Z,6.00
2022-12-08T15:30:32.436Z,6.50
2022-12-08T15:33:01.310Z,7.20
2022-12-08T15:35:30.404Z,8.40
2022-12-08T15:38:00.436Z,9.10
2022-12-08T15:40:29.524Z,8.50
2022-12-08T15:42:58.512Z,7.80
2022-12-08T15:45:31.786Z,8.10
2022-12-08T15:48:01.808Z,9.20
2022-12-08T15:50:31.527Z,9.00
2022-12-08T15:53:00.238Z,8.20
2022-12-08T15:55:31.089Z,6.90
2022-12-08T16:00:54.153Z,8.20
2022-12-08T16:09:24.468Z,7.50
2022-12-08T16:12:12.672Z,5.90
2022-12-08T16:17:35.233Z,8.50
2022-12-08T16:20:12.178Z,8.50
2022-12-08T16:22:54.492Z,8.60
2022-12-08T16:25:46.033Z,8.40
2022-12-08T16:28:52.068Z,8.80
2022-12-08T16:31:13.778Z,10.40
2022-12-08T16:33:44.214Z,9.50
2022-12-08T16:36:13.116Z,9.70
2022-12-08T16:38:43.551Z,9.50
2022-12-08T16:41:34.237Z,9.60
2022-12-08T16:44:05.627Z,9.70
2022-12-08T16:46:36.614Z,8.80
2022-12-08T16:49:06.574Z,8.90
2022-12-08T16:51:36.138Z,8.30
2022-12-08T16:54:05.559Z,7.20
2022-12-08T16:56:34.843Z,7.30
2022-12-08T16:59:04.262Z,7.40
2022-12-08T17:01:33.594Z,8.10
2022-12-08T17:06:53.276Z,6.60
2022-12-08T17:09:22.436Z,7.80
2022-12-08T17:11:56.551Z,6.70
2022-12-08T17:14:27.998Z,6.20
2022-12-08T17:16:57.088Z,5.10
2022-12-08T17:19:27.536Z,5.50
2022-12-08T17:21:56.625Z,6.80
2022-12-08T17:24:29.864Z,5.60
2022-12-08T17:27:04.746Z,6.00
2022-12-08T17:29:35.579Z,6.40
2022-12-08T17:32:05.103Z,6.80
2022-12-08T17:34:34.176Z,6.40
2022-12-08T17:37:03.604Z,6.10
2022-12-08T17:39:39.745Z,6.60
2022-12-08T17:42:09.793Z,4.70
2022-12-08T17:44:39.979Z,6.60
2022-12-08T17:47:09.390Z,6.10
2022-12-08T17:49:37.975Z,6.80
2022-12-08T17:52:08.016Z,6.80
2022-12-08T17:54:37.281Z,7.80
2022-12-08T17:57:07.000Z,7.20
2022-12-08T17:59:36.288Z,8.00
2022-12-08T18:02:05.753Z,6.80
2022-12-08T18:04:36.629Z,6.80
2022-12-08T18:07:08.552Z,6.60
2022-12-08T18:09:37.942Z,6.70
2022-12-08T18:12:09.298Z,8.40
2022-12-08T18:14:39.769Z,8.20
2022-12-08T18:17:10.179Z,8.50
2022-12-08T18:19:40.538Z,7.90
2022-12-08T18:22:11.382Z,10.40
2022-12-08T18:24:43.013Z,9.00
2022-12-08T18:27:12.212Z,8.00
2022-12-08T18:29:41.755Z,7.30
2022-12-08T18:32:13.767Z,6.90
2022-12-08T18:34:43.517Z,7.30
2022-12-08T18:37:12.892Z,8.50
2022-12-08T18:39:43.137Z,7.40
2022-12-08T18:42:30.736Z,7.00
2022-12-08T18:45:05.370Z,7.80
2022-12-08T18:47:37.945Z,8.10
2022-12-08T18:50:09.469Z,8.30
2022-12-08T18:52:44.856Z,5.90
2022-12-08T18:55:17.033Z,8.30
2022-12-08T18:57:48.044Z,5.70
2022-12-08T19:00:19.927Z,7.30
2022-12-08T19:02:50.801Z,7.40
2022-12-08T19:05:23.428Z,8.30
2022-12-08T19:07:54.183Z,9.30
2022-12-08T19:10:26.251Z,7.80
2022-12-08T19:13:00.249Z,8.00
2022-12-08T19:15:30.795Z,8.70
2022-12-08T19:18:01.494Z,6.70
2022-12-08T19:20:32.119Z,8.40
2022-12-08T19:23:07.249Z,8.60
2022-12-08T19:25:37.595Z,7.80
2022-12-08T19:28:08.648Z,6.30
2022-12-08T19:30:41.451Z,7.90
2022-12-08T19:33:12.344Z,8.50
2022-12-08T19:35:49.076Z,9.70
2022-12-08T19:38:31.369Z,8.10
2022-12-08T19:41:23.894Z,7.80
2022-12-08T19:44:13.445Z,7.10
2022-12-08T19:46:52.191Z,8.50
2022-12-08T19:49:24.167Z,9.60
2022-12-08T19:51:55.519Z,8.90
2022-12-08T19:54:32.984Z,9.00
2022-12-08T19:57:03.727Z,7.60
2022-12-08T19:59:41.293Z,7.30
2022-12-08T20:02:12.854Z,8.30
2022-12-08T20:04:43.479Z,8.50
2022-12-08T20:07:15.320Z,8.10
2022-12-08T20:09:45.388Z,7.30
2022-12-08T20:12:19.404Z,7.90
2022-12-08T20:14:49.786Z,7.10
2022-12-08T20:17:20.948Z,6.70
2022-12-08T20:19:51.623Z,6.90
2022-12-08T20:22:21.947Z,7.00
2022-12-08T20:24:59.414Z,5.90
2022-12-08T20:27:35.141Z,6.90
2022-12-08T20:30:05.315Z,4.90
2022-12-08T20:32:39.272Z,6.50
2022-12-08T20:35:10.408Z,6.50
2022-12-08T20:37:40.456Z,6.70
2022-12-08T20:40:11.431Z,8.40
2022-12-08T20:42:44.272Z,8.40
2022-12-08T20:45:16.259Z,9.80
2022-12-08T20:47:50.138Z,8.40
2022-12-08T20:50:20.834Z,7.30
2022-12-08T20:52:54.826Z,7.60
2022-12-08T20:55:26.713Z,7.80
2022-12-08T20:57:56.760Z,7.70
2022-12-08T21:00:28.798Z,6.90
2022-12-08T21:02:59.834Z,8.40
2022-12-08T21:05:30.191Z,7.60
2022-12-08T21:08:00.042Z,8.10
2022-12-08T21:10:29.510Z,7.70
2022-12-08T21:12:59.265Z,8.60
2022-12-08T21:15:30.294Z,9.10
2022-12-08T21:17:59.836Z,8.40
2022-12-08T21:20:28.636Z,8.10
2022-12-08T21:22:57.651Z,10.20
2022-12-08T21:25:26.673Z,8.80
2022-12-08T21:27:56.084Z,9.70
2022-12-08T21:30:25.187Z,10.10
2022-12-08T21:32:54.627Z,8.50
2022-12-08T21:35:24.279Z,8.30
2022-12-08T21:37:54.575Z,8.80
2022-12-08T21:40:24.149Z,8.30
2022-12-08T21:42:54.139Z,8.70
2022-12-08T21:45:23.888Z,7.50
2022-12-08T21:47:52.695Z,7.30
2022-12-08T21:50:22.471Z,7.90
2022-12-08T21:52:51.937Z,7.50
2022-12-08T21:55:21.928Z,9.10
2022-12-08T21:57:51.503Z,8.00
2022-12-08T22:00:21.629Z,8.40
2022-12-08T22:02:50.960Z,8.80
2022-12-08T22:05:20.604Z,10.30
2022-12-08T22:07:49.928Z,11.00
2022-12-08T22:10:21.451Z,8.10
2022-12-08T22:12:50.427Z,8.90
2022-12-08T22:15:21.457Z,9.40
2022-12-08T22:17:50.894Z,8.30
2022-12-08T22:20:20.092Z,8.80
2022-12-08T22:22:49.941Z,8.60
2022-12-08T22:25:19.188Z,8.10
2022-12-08T22:27:49.004Z,8.30
2022-12-08T22:30:18.363Z,7.40
2022-12-08T22:32:49.181Z,8.70
2022-12-08T22:35:18.692Z,8.00
2022-12-08T22:37:51.307Z,8.90
2022-12-08T22:40:21.246Z,9.00
2022-12-08T22:42:50.592Z,9.50
2022-12-08T22:45:20.077Z,8.80
2022-12-08T22:47:49.308Z,8.20
2022-12-08T22:50:19.121Z,9.40
2022-12-08T22:52:48.428Z,9.30
2022-12-08T22:55:17.960Z,8.30
2022-12-08T22:57:47.957Z,7.60
2022-12-08T23:00:19.079Z,9.00
2022-12-08T23:02:48.166Z,7.20
2022-12-08T23:05:17.911Z,8.20
2022-12-08T23:07:47.064Z,8.60
2022-12-08T23:10:16.090Z,8.90
2022-12-08T23:12:45.177Z,7.90
2022-12-08T23:15:13.920Z,9.10
2022-12-08T23:17:42.958Z,8.40
2022-12-08T23:20:12.962Z,8.90
2022-12-08T23:22:41.763Z,8.80
2022-12-08T23:25:10.430Z,8.50
2022-12-08T23:27:39.115Z,7.30
2022-12-08T23:30:09.368Z,7.10
2022-12-08T23:32:39.026Z,7.50
2022-12-08T23:35:08.603Z,6.60
2022-12-08T23:37:37.449Z,8.70
2022-12-08T23:40:07.716Z,7.20
2022-12-08T23:42:36.838Z,8.10
2022-12-08T23:45:08.550Z,8.60
2022-12-08T23:47:37.690Z,7.80
2022-12-08T23:50:07.925Z,6.70
2022-12-08T23:52:39.334Z,8.60
2022-12-08T23:55:09.440Z,7.40
2022-12-08T23:57:39.320Z,7.20
